createdAt,value
2022-11-27T00:01:21.755Z,17.65
2022-11-27T00:03:49.530Z,19.17
2022-11-27T00:06:17.913Z,17.35
2022-11-27T00:08:45.687Z,19.63
2022-11-27T00:11:16.087Z,21.63
2022-11-27T00:13:43.317Z,20.20
2022-11-27T00:16:11.031Z,18.55
2022-11-27T00:18:38.315Z,20.23
2022-11-27T00:21:06.809Z,20.13
2022-11-27T00:23:34.842Z,20.33
2022-11-27T00:26:02.438Z,19.27
2022-11-27T00:28:30.931Z,19.42
2022-11-27T00:31:02.401Z,21.77
2022-11-27T00:33:29.851Z,19.85
2022-11-27T00:35:57.066Z,19.50
2022-11-27T00:38:24.337Z,22.80
2022-11-27T00:40:51.989Z,17.17
2022-11-27T00:43:19.229Z,19.17
2022-11-27T00:45:50.013Z,19.02
2022-11-27T00:48:17.265Z,19.33
2022-11-27T00:50:44.468Z,19.27
2022-11-27T00:53:12.077Z,17.67
2022-11-27T00:55:39.515Z,17.17
2022-11-27T00:58:06.746Z,20.10
2022-11-27T01:00:33.995Z,18.75
2022-11-27T01:03:01.316Z,18.08
2022-11-27T01:05:28.705Z,18.50
2022-11-27T01:07:56.454Z,20.23
2022-11-27T01:10:23.759Z,18.35
2022-11-27T01:12:51.135Z,20.08
2022-11-27T01:15:18.427Z,18.70
2022-11-27T01:17:45.699Z,18.10
2022-11-27T01:20:13.351Z,18.48
2022-11-27T01:22:40.629Z,20.85
2022-11-27T01:25:08.556Z,17.80
2022-11-27T01:27:35.801Z,18.20
2022-11-27T01:30:03.154Z,18.25
2022-11-27T01:32:30.457Z,16.48
2022-11-27T01:34:57.703Z,17.23
2022-11-27T01:37:25.001Z,16.95
2022-11-27T01:39:52.561Z,18.48
2022-11-27T01:42:19.816Z,19.77
2022-11-27T01:44:51.864Z,17.90
2022-11-27T01:47:25.650Z,17.48
2022-11-27T01:49:55.012Z,18.02
2022-11-27T01:52:26.246Z,16.70
2022-11-27T01:55:19.069Z,19.58
2022-11-27T01:57:50.700Z,16.27
2022-11-27T02:00:19.070Z,17.65
2022-11-27T02:02:46.948Z,17.00
2022-11-27T02:05:19.744Z,16.63
2022-11-27T02:07:48.041Z,19.50
2022-11-27T02:10:15.798Z,17.92
2022-11-27T02:13:07.124Z,15.60
2022-11-27T02:15:37.354Z,16.95
2022-11-27T02:18:10.429Z,17.75
2022-11-27T02:21:01.202Z,16.55
2022-11-27T02:23:28.969Z,17.33
2022-11-27T02:25:59.623Z,19.92
2022-11-27T02:28:44.127Z,18.42
2022-11-27T02:31:15.816Z,17.25
2022-11-27T02:33:46.546Z,17.85
2022-11-27T02:36:18.476Z,19.25
2022-11-27T02:38:48.852Z,17.00
2022-11-27T02:41:38.748Z,17.88
2022-11-27T02:44:07.148Z,16.15
2022-11-27T02:46:37.419Z,17.48
2022-11-27T02:49:08.509Z,17.67
2022-11-27T02:51:39.195Z,18.90
2022-11-27T02:54:08.873Z,17.30
2022-11-27T02:56:36.350Z,19.58
2022-11-27T02:59:05.809Z,17.65
2022-11-27T03:01:36.112Z,17.98
2022-11-27T03:04:05.148Z,16.13
2022-11-27T03:06:43.028Z,15.88
2022-11-27T03:09:13.492Z,21.92
2022-11-27T03:11:42.183Z,18.08
2022-11-27T03:14:10.562Z,20.55
2022-11-27T03:16:40.658Z,15.30
2022-11-27T03:19:28.134Z,16.67
2022-11-27T03:21:59.524Z,16.02
2022-11-27T03:24:27.988Z,17.25
2022-11-27T03:26:55.658Z,17.58
2022-11-27T03:29:28.880Z,15.30
2022-11-27T03:31:56.698Z,14.75
2022-11-27T03:34:24.027Z,18.10
2022-11-27T03:36:51.245Z,15.50
2022-11-27T03:39:19.131Z,16.83
2022-11-27T03:41:52.418Z,15.73
2022-11-27T03:44:31.706Z,15.70
2022-11-27T03:47:13.024Z,15.50
2022-11-27T03:49:59.237Z,14.50
2022-11-27T03:52:37.916Z,15.50
2022-11-27T03:55:14.340Z,13.60
2022-11-27T03:57:44.593Z,30.50
2022-11-27T04:00:12.239Z,16.50
2022-11-27T04:02:44.948Z,14.38
2022-11-27T04:05:16.820Z,13.30
2022-11-27T04:07:44.238Z,16.80
2022-11-27T04:10:11.844Z,12.93
2022-11-27T04:12:39.381Z,13.18
2022-11-27T04:15:07.385Z,15.85
2022-11-27T04:17:34.900Z,13.77
2022-11-27T04:20:02.378Z,14.13
2022-11-27T04:22:29.631Z,14.02
2022-11-27T04:24:56.887Z,17.63
2022-11-27T04:27:24.497Z,13.43
2022-11-27T04:29:51.764Z,12.10
2022-11-27T04:32:19.023Z,13.25
2022-11-27T04:34:46.255Z,13.35
2022-11-27T04:37:13.589Z,14.48
2022-11-27T04:39:40.901Z,12.43
2022-11-27T04:42:08.155Z,15.77
2022-11-27T04:44:35.384Z,12.98
2022-11-27T04:47:02.932Z,13.40
2022-11-27T04:49:30.230Z,14.95
2022-11-27T04:51:57.531Z,13.82
2022-11-27T04:54:24.844Z,16.23
2022-11-27T04:56:52.099Z,15.13
2022-11-27T04:59:19.382Z,12.98
2022-11-27T05:01:46.653Z,13.40
2022-11-27T05:04:13.926Z,14.65
2022-11-27T05:06:41.569Z,12.95
2022-11-27T05:09:09.181Z,12.65
2022-11-27T05:11:36.436Z,14.40
2022-11-27T05:14:16.943Z,14.25
2022-11-27T05:16:50.129Z,13.00
2022-11-27T05:19:18.371Z,15.40
2022-11-27T05:21:46.445Z,14.00
2022-11-27T05:24:14.145Z,13.18
2022-11-27T05:26:41.860Z,13.45
2022-11-27T05:29:09.758Z,13.80
2022-11-27T05:31:37.165Z,15.18
2022-11-27T05:34:04.677Z,16.77
2022-11-27T05:36:32.254Z,13.50
2022-11-27T05:39:00.286Z,15.23
2022-11-27T05:41:27.586Z,13.00
2022-11-27T05:43:54.913Z,12.73
2022-11-27T05:46:23.467Z,14.40
2022-11-27T05:48:51.060Z,13.25
2022-11-27T05:51:20.851Z,10.65
2022-11-27T05:53:48.123Z,15.13
2022-11-27T05:56:17.198Z,14.77
2022-11-27T05:58:45.626Z,12.30
2022-11-27T06:01:13.551Z,12.70
2022-11-27T06:03:40.907Z,14.90
2022-11-27T06:06:12.561Z,12.10
2022-11-27T06:08:40.555Z,13.70
2022-11-27T06:11:20.724Z,11.15
2022-11-27T06:13:48.913Z,11.18
2022-11-27T06:16:17.659Z,12.43
2022-11-27T06:18:45.369Z,13.98
2022-11-27T06:21:14.262Z,12.52
2022-11-27T06:23:42.533Z,11.73
2022-11-27T06:26:14.052Z,13.75
2022-11-27T06:28:41.464Z,14.98
2022-11-27T06:31:14.469Z,13.02
2022-11-27T06:33:44.668Z,15.32
2022-11-27T06:36:11.940Z,12.88
2022-11-27T06:38:39.535Z,14.38
2022-11-27T06:41:09.673Z,13.13
2022-11-27T06:43:37.205Z,14.00
2022-11-27T06:46:05.216Z,14.48
2022-11-27T06:48:33.177Z,13.00
2022-11-27T06:51:05.137Z,15.45
2022-11-27T06:53:33.936Z,14.70
2022-11-27T06:56:03.194Z,15.68
2022-11-27T06:58:31.306Z,13.77
2022-11-27T07:01:01.946Z,12.07
2022-11-27T07:03:29.524Z,16.13
2022-11-27T07:06:00.038Z,13.00
2022-11-27T07:08:27.357Z,14.15
2022-11-27T07:10:54.622Z,12.63
2022-11-27T07:13:21.882Z,15.48
2022-11-27T07:15:49.237Z,17.58
2022-11-27T07:18:16.487Z,18.10
2022-11-27T07:20:43.747Z,12.20
2022-11-27T07:23:11.089Z,14.07
2022-11-27T07:25:38.494Z,15.35
2022-11-27T07:28:05.757Z,13.73
2022-11-27T07:30:33.018Z,13.88
2022-11-27T07:33:00.251Z,15.23
2022-11-27T07:35:27.522Z,11.98
2022-11-27T07:37:54.785Z,12.93
2022-11-27T07:40:22.047Z,15.70
2022-11-27T07:42:49.300Z,13.55
2022-11-27T07:45:16.633Z,15.88
2022-11-27T07:47:43.894Z,16.83
2022-11-27T07:50:11.495Z,14.90
2022-11-27T07:52:41.756Z,13.57
2022-11-27T07:55:09.730Z,14.00
2022-11-27T07:57:37.044Z,14.82
2022-11-27T08:00:04.966Z,15.48
2022-11-27T08:02:32.234Z,13.95
2022-11-27T08:04:59.596Z,17.52
2022-11-27T08:07:30.560Z,14.75
2022-11-27T08:09:58.429Z,14.20
2022-11-27T08:12:26.180Z,13.70
2022-11-27T08:14:53.432Z,13.55
2022-11-27T08:17:20.734Z,11.13
2022-11-27T08:19:48.028Z,13.98
2022-11-27T08:22:15.670Z,15.55
2022-11-27T08:24:43.134Z,13.18
2022-11-27T08:27:10.800Z,13.52
2022-11-27T08:29:40.894Z,12.68
2022-11-27T08:32:08.192Z,17.45
2022-11-27T08:34:35.526Z,12.13
2022-11-27T08:37:02.819Z,14.27
2022-11-27T08:39:30.085Z,12.90
2022-11-27T08:41:57.361Z,14.13
2022-11-27T08:44:24.648Z,10.32
2022-11-27T08:46:52.070Z,9.13
2022-11-27T08:49:19.493Z,12.15
2022-11-27T08:51:46.802Z,10.20
2022-11-27T08:54:14.093Z,10.90
2022-11-27T08:56:41.397Z,12.30
2022-11-27T08:59:09.890Z,10.30
2022-11-27T09:01:37.254Z,10.40
2022-11-27T09:04:04.757Z,12.32
2022-11-27T09:06:33.317Z,11.52
2022-11-27T09:09:01.122Z,10.98
2022-11-27T09:11:29.485Z,14.50
2022-11-27T09:13:56.790Z,13.23
2022-11-27T09:16:24.778Z,12.35
2022-11-27T09:18:52.826Z,11.98
2022-11-27T09:21:21.619Z,11.15
2022-11-27T09:23:49.183Z,16.80
2022-11-27T09:26:17.880Z,14.82
2022-11-27T09:28:45.951Z,13.68
2022-11-27T09:31:15.074Z,12.75
2022-11-27T09:33:43.244Z,13.38
2022-11-27T09:36:21.768Z,15.27
2022-11-27T09:38:49.250Z,13.35
2022-11-27T09:41:16.486Z,14.15
2022-11-27T09:43:52.435Z,14.32
2022-11-27T09:46:25.842Z,16.67
2022-11-27T09:48:53.469Z,18.40
2022-11-27T09:51:29.192Z,17.13
2022-11-27T09:54:03.131Z,17.98
2022-11-27T09:56:30.865Z,16.63
2022-11-27T09:58:59.305Z,17.52
2022-11-27T10:01:38.521Z,21.25
2022-11-27T10:04:13.722Z,17.23
2022-11-27T10:06:53.176Z,18.48
2022-11-27T10:09:26.330Z,19.70
2022-11-27T10:12:12.362Z,19.50
2022-11-27T10:14:45.452Z,20.08
2022-11-27T10:17:16.925Z,20.42
2022-11-27T10:19:50.307Z,19.00
2022-11-27T10:22:23.694Z,21.52
2022-11-27T10:25:03.193Z,20.83
2022-11-27T10:27:38.483Z,19.83
2022-11-27T10:30:14.107Z,19.48
2022-11-27T10:32:56.886Z,21.88
2022-11-27T10:35:25.590Z,18.73
2022-11-27T10:38:01.016Z,20.17
2022-11-27T10:40:41.261Z,20.10
2022-11-27T10:43:13.633Z,16.05
2022-11-27T10:45:50.364Z,20.08
2022-11-27T10:48:17.785Z,20.27
2022-11-27T10:50:46.168Z,17.35
2022-11-27T10:53:16.255Z,21.83
2022-11-27T10:56:02.359Z,15.13
2022-11-27T10:58:29.660Z,18.95
2022-11-27T11:01:07.716Z,18.88
2022-11-27T11:03:35.333Z,21.92
2022-11-27T11:06:20.200Z,21.27
2022-11-27T11:08:49.005Z,16.77
2022-11-27T11:11:25.793Z,18.17
2022-11-27T11:13:53.145Z,20.80
2022-11-27T11:16:24.637Z,21.20
2022-11-27T11:18:56.160Z,22.50
2022-11-27T11:23:56.846Z,19.75
2022-11-27T11:26:24.084Z,22.10
2022-11-27T11:28:52.915Z,19.38
2022-11-27T11:31:22.074Z,20.38
2022-11-27T11:33:59.711Z,20.05
2022-11-27T11:36:27.064Z,20.27
2022-11-27T11:38:54.425Z,23.95
2022-11-27T11:41:21.854Z,25.13
2022-11-27T11:43:56.725Z,21.67
2022-11-27T11:46:25.808Z,22.58
2022-11-27T11:49:13.335Z,20.98
2022-11-27T11:51:59.169Z,22.42
2022-11-27T11:54:32.347Z,25.13
2022-11-27T11:57:01.024Z,24.30
2022-11-27T11:59:50.748Z,22.83
2022-11-27T12:02:39.231Z,24.73
2022-11-27T12:05:17.240Z,20.60
2022-11-27T12:07:52.087Z,23.02
2022-11-27T12:10:31.012Z,16.15
2022-11-27T12:13:04.715Z,15.32
2022-11-27T12:15:40.843Z,14.68
2022-11-27T12:18:14.205Z,19.38
2022-11-27T12:20:44.588Z,14.82
2022-11-27T12:23:18.100Z,11.18
2022-11-27T12:25:58.583Z,15.63
2022-11-27T12:28:47.022Z,15.80
2022-11-27T12:31:23.631Z,15.65
2022-11-27T12:33:57.038Z,19.80
2022-11-27T12:36:33.013Z,17.98
2022-11-27T12:39:00.248Z,19.95
2022-11-27T12:41:36.750Z,19.27
2022-11-27T12:44:07.194Z,16.73
2022-11-27T12:46:43.437Z,18.23
2022-11-27T12:49:13.827Z,18.02
2022-11-27T12:51:44.361Z,17.52
2022-11-27T12:54:31.905Z,21.30
2022-11-27T12:57:01.275Z,19.00
2022-11-27T12:59:38.337Z,18.45
2022-11-27T13:02:24.866Z,19.38
2022-11-27T13:04:55.534Z,17.58
2022-11-27T13:07:29.363Z,19.42
2022-11-27T13:10:15.649Z,19.17
2022-11-27T13:13:01.913Z,18.55
2022-11-27T13:15:32.706Z,19.08
2022-11-27T13:18:05.693Z,19.23
2022-11-27T13:20:37.716Z,18.45
2022-11-27T13:23:06.250Z,20.60
2022-11-27T13:25:35.392Z,21.17
2022-11-27T13:28:04.505Z,22.38
2022-11-27T13:30:34.450Z,19.88
2022-11-27T13:33:02.405Z,19.20
2022-11-27T13:35:38.324Z,23.40
2022-11-27T13:38:10.730Z,25.30
2022-11-27T13:40:45.624Z,20.20
2022-11-27T13:43:33.187Z,19.45
2022-11-27T13:46:02.449Z,24.02
2022-11-27T13:48:32.854Z,21.70
2022-11-27T13:51:00.482Z,24.65
2022-11-27T13:53:41.438Z,21.98
2022-11-27T13:58:39.971Z,22.33
2022-11-27T14:01:13.614Z,22.80
2022-11-27T14:03:41.190Z,21.00
2022-11-27T14:06:17.482Z,22.17
2022-11-27T14:08:53.802Z,23.83
2022-11-27T14:11:30.320Z,24.25
2022-11-27T14:13:58.280Z,19.38
2022-11-27T14:16:33.275Z,24.73
2022-11-27T14:19:22.132Z,25.73
2022-11-27T14:21:49.466Z,23.50
2022-11-27T14:24:47.216Z,23.98
2022-11-27T14:27:21.981Z,22.15
2022-11-27T14:29:49.768Z,24.30
2022-11-27T14:32:17.783Z,35.80
2022-11-27T14:34:45.799Z,18.70
2022-11-27T14:37:21.112Z,25.33
2022-11-27T14:39:48.400Z,25.45
2022-11-27T14:42:25.093Z,20.23
2022-11-27T14:45:08.987Z,21.70
2022-11-27T14:50:06.035Z,22.52
2022-11-27T14:52:33.638Z,22.80
2022-11-27T14:55:01.833Z,21.38
2022-11-27T14:57:29.749Z,22.65
2022-11-27T15:00:25.296Z,23.38
2022-11-27T15:02:52.764Z,26.17
2022-11-27T15:05:20.139Z,26.90
2022-11-27T15:07:50.997Z,30.02
2022-11-27T15:10:23.803Z,28.73
2022-11-27T15:12:51.213Z,29.73
2022-11-27T15:15:22.694Z,27.95
2022-11-27T15:17:51.639Z,28.80
2022-11-27T15:20:26.521Z,28.38
2022-11-27T15:22:55.127Z,26.17
2022-11-27T15:25:31.522Z,27.98
2022-11-27T15:27:58.886Z,30.95
2022-11-27T15:30:26.189Z,27.73
2022-11-27T15:32:55.446Z,29.92
2022-11-27T15:35:25.646Z,29.95
2022-11-27T15:37:53.637Z,28.70
2022-11-27T15:40:40.414Z,28.27
2022-11-27T15:43:17.152Z,25.48
2022-11-27T15:45:45.188Z,30.88
2022-11-27T15:48:15.192Z,28.83
2022-11-27T15:50:45.528Z,26.13
2022-11-27T15:53:17.350Z,26.80
2022-11-27T15:55:44.693Z,32.10
2022-11-27T15:58:12.014Z,27.00
2022-11-27T16:00:39.899Z,27.77
2022-11-27T16:03:07.203Z,27.38
2022-11-27T16:05:34.494Z,28.80
2022-11-27T16:08:01.969Z,26.58
2022-11-27T16:10:29.310Z,23.25
2022-11-27T16:12:57.730Z,25.45
2022-11-27T16:15:28.715Z,28.27
2022-11-27T16:17:58.865Z,27.75
2022-11-27T16:20:26.614Z,26.83
2022-11-27T16:22:54.127Z,24.65
2022-11-27T16:25:21.427Z,27.05
2022-11-27T16:27:48.743Z,24.48
2022-11-27T16:30:16.133Z,24.77
2022-11-27T16:32:43.442Z,24.02
2022-11-27T16:35:10.965Z,23.77
2022-11-27T16:37:38.285Z,28.25
2022-11-27T16:40:06.003Z,27.33
2022-11-27T16:42:33.334Z,25.17
2022-11-27T16:45:00.593Z,23.88
2022-11-27T16:47:33.334Z,26.95
2022-11-27T16:50:01.062Z,23.48
2022-11-27T16:52:28.323Z,23.85
2022-11-27T16:54:56.321Z,25.05
2022-11-27T16:57:23.762Z,22.00
2022-11-27T16:59:51.077Z,81.63
2022-11-27T17:02:18.414Z,24.92
2022-11-27T17:04:45.781Z,25.92
2022-11-27T17:07:13.114Z,23.45
2022-11-27T17:09:42.275Z,23.15
2022-11-27T17:12:09.645Z,25.05
2022-11-27T17:14:37.261Z,22.42
2022-11-27T17:17:06.233Z,23.67
2022-11-27T17:19:34.317Z,27.75
2022-11-27T17:22:01.673Z,27.10
2022-11-27T17:24:29.147Z,22.83
2022-11-27T17:26:56.577Z,27.30
2022-11-27T17:29:23.979Z,23.45
2022-11-27T17:31:51.723Z,24.13
2022-11-27T17:34:21.861Z,24.52
2022-11-27T17:36:53.696Z,24.95
2022-11-27T17:39:21.068Z,23.92
2022-11-27T17:41:49.413Z,20.67
2022-11-27T17:44:16.690Z,24.13
2022-11-27T17:46:50.102Z,24.92
2022-11-27T17:49:17.487Z,23.98
2022-11-27T17:51:44.804Z,28.60
2022-11-27T17:54:12.530Z,23.08
2022-11-27T17:56:40.083Z,22.60
2022-11-27T17:59:07.820Z,23.67
2022-11-27T18:01:35.459Z,21.45
2022-11-27T18:04:04.406Z,24.08
2022-11-27T18:06:32.248Z,22.02
2022-11-27T18:08:59.607Z,28.30
2022-11-27T18:11:28.114Z,27.80
2022-11-27T18:13:55.672Z,29.65
2022-11-27T18:16:24.412Z,40.58
2022-11-27T18:18:52.194Z,27.08
2022-11-27T18:21:20.473Z,29.88
2022-11-27T18:24:21.395Z,29.85
2022-11-27T18:27:06.615Z,28.58
2022-11-27T18:29:23.718Z,29.27
2022-11-27T18:31:52.812Z,29.30
2022-11-27T18:34:20.310Z,25.92
2022-11-27T18:36:47.660Z,28.65
2022-11-27T18:39:15.730Z,29.90
2022-11-27T18:41:44.155Z,28.08
2022-11-27T18:44:11.511Z,27.52
2022-11-27T18:46:39.093Z,28.85
2022-11-27T18:49:06.997Z,24.60
2022-11-27T18:51:34.605Z,26.17
2022-11-27T18:54:01.972Z,27.52
2022-11-27T18:56:30.846Z,28.15
2022-11-27T18:59:01.784Z,24.67
2022-11-27T19:01:34.319Z,29.23
2022-11-27T19:04:04.682Z,28.38
2022-11-27T19:06:32.157Z,26.85
2022-11-27T19:08:59.637Z,26.42
2022-11-27T19:11:28.726Z,24.77
2022-11-27T19:13:56.974Z,26.00
2022-11-27T19:16:29.548Z,26.92
2022-11-27T19:18:57.760Z,26.52
2022-11-27T19:21:26.706Z,27.17
2022-11-27T19:23:54.663Z,29.27
2022-11-27T19:26:23.626Z,27.92
2022-11-27T19:28:51.664Z,25.65
2022-11-27T19:31:19.486Z,27.95
2022-11-27T19:33:52.031Z,29.58
2022-11-27T19:36:19.791Z,27.50
2022-11-27T19:38:47.302Z,27.73
2022-11-27T19:41:18.900Z,29.48
2022-11-27T19:43:47.782Z,30.08
2022-11-27T19:46:15.193Z,31.25
2022-11-27T19:48:42.630Z,28.58
2022-11-27T19:51:13.168Z,26.67
2022-11-27T19:53:40.903Z,30.83
2022-11-27T19:56:08.798Z,26.42
2022-11-27T19:58:36.779Z,28.55
2022-11-27T20:01:11.350Z,30.00
2022-11-27T20:03:38.641Z,30.65
2022-11-27T20:06:11.918Z,27.50
2022-11-27T20:08:39.505Z,24.85
2022-11-27T20:11:07.859Z,24.70
2022-11-27T20:13:35.393Z,25.95
2022-11-27T20:16:06.895Z,24.35
2022-11-27T20:18:34.175Z,24.40
2022-11-27T20:21:08.765Z,25.25
2022-11-27T20:23:36.304Z,25.92
2022-11-27T20:26:10.577Z,24.70
2022-11-27T20:28:38.888Z,25.42
2022-11-27T20:31:06.263Z,24.60
2022-11-27T20:33:33.674Z,26.67
2022-11-27T20:36:02.245Z,24.63
2022-11-27T20:38:29.589Z,24.08
2022-11-27T20:40:56.914Z,23.30
2022-11-27T20:43:24.233Z,22.10
2022-11-27T20:45:53.492Z,21.63
2022-11-27T20:48:20.906Z,22.15
2022-11-27T20:50:51.363Z,25.55
2022-11-27T20:53:18.854Z,23.25
2022-11-27T20:55:46.168Z,25.08
2022-11-27T20:58:13.410Z,23.48
2022-11-27T21:00:40.740Z,22.67
2022-11-27T21:03:10.507Z,31.08
2022-11-27T21:05:37.779Z,43.25
2022-11-27T21:08:07.203Z,24.20
2022-11-27T21:10:34.439Z,22.90
2022-11-27T21:13:01.723Z,24.05
2022-11-27T21:15:28.987Z,22.38
2022-11-27T21:17:56.228Z,21.88
2022-11-27T21:20:23.493Z,22.27
2022-11-27T21:22:50.792Z,22.63
2022-11-27T21:25:22.639Z,22.30
2022-11-27T21:27:55.847Z,22.10
2022-11-27T21:30:23.153Z,21.55
2022-11-27T21:32:50.466Z,20.17
2022-11-27T21:35:17.862Z,25.10
2022-11-27T21:37:45.307Z,21.00
2022-11-27T21:40:12.905Z,20.55
2022-11-27T21:42:44.393Z,20.65
2022-11-27T21:45:12.276Z,22.35
2022-11-27T21:47:39.549Z,22.60
2022-11-27T21:50:07.229Z,20.67
2022-11-27T21:52:35.679Z,22.63
2022-11-27T21:55:05.545Z,23.48
2022-11-27T21:57:35.023Z,20.20
2022-11-27T22:00:02.342Z,21.05
2022-11-27T22:02:29.617Z,23.17
2022-11-27T22:04:56.887Z,21.25
2022-11-27T22:07:24.284Z,21.67
2022-11-27T22:09:51.603Z,24.65
2022-11-27T22:12:19.001Z,22.50
2022-11-27T22:14:46.266Z,20.75
2022-11-27T22:17:13.676Z,26.02
2022-11-27T22:19:42.487Z,25.75
2022-11-27T22:22:09.769Z,23.15
2022-11-27T22:24:36.989Z,21.48
2022-11-27T22:27:04.612Z,25.77
2022-11-27T22:29:31.989Z,22.83
2022-11-27T22:31:59.328Z,23.98
2022-11-27T22:34:26.560Z,23.30
2022-11-27T22:36:55.741Z,22.75
2022-11-27T22:39:22.993Z,25.08
2022-11-27T22:41:50.533Z,22.80
2022-11-27T22:44:21.075Z,22.75
2022-11-27T22:46:48.665Z,23.42
2022-11-27T22:49:17.456Z,23.67
2022-11-27T22:51:45.114Z,22.50
2022-11-27T22:54:13.697Z,25.92
2022-11-27T22:56:40.985Z,24.08
2022-11-27T23:01:55.729Z,23.75
2022-11-27T23:04:23.024Z,30.00
2022-11-27T23:06:50.274Z,26.30
2022-11-27T23:09:18.972Z,22.60
2022-11-27T23:11:46.395Z,22.88
2022-11-27T23:14:13.750Z,24.17
2022-11-27T23:16:41.100Z,26.60
2022-11-27T23:19:08.521Z,23.85
2022-11-27T23:21:37.692Z,22.58
2022-11-27T23:24:05.840Z,25.60
2022-11-27T23:26:33.514Z,24.90
2022-11-27T23:29:03.102Z,22.27
2022-11-27T23:31:34.303Z,23.55
2022-11-27T23:34:02.969Z,26.95
2022-11-27T23:36:31.152Z,24.13
2022-11-27T23:39:01.961Z,25.25
2022-11-27T23:43:56.729Z,24.92
2022-11-27T23:46:26.354Z,22.92
2022-11-27T23:48:57.943Z,26.50
2022-11-27T23:51:26.608Z,22.65
2022-11-27T23:53:54.159Z,28.05
2022-11-27T23:56:22.862Z,25.02
2022-11-27T23:58:50.207Z,28.42
